sensor_id;sensor_type;location;lat;lon;timestamp;P1;durP1;ratioP1;P2;durP2;ratioP2
48268;SDS011;34088;52.232;5.196;2022-09-23T00:01:30;9.93;;;6.00;;
48268;SDS011;34088;52.232;5.196;2022-09-23T00:03:57;9.63;;;6.63;;
48268;SDS011;34088;52.232;5.196;2022-09-23T00:06:24;10.10;;;6.60;;
48268;SDS011;34088;52.232;5.196;2022-09-23T00:08:52;9.73;;;5.93;;
48268;SDS011;34088;52.232;5.196;2022-09-23T00:11:22;8.82;;;6.63;;
48268;SDS011;34088;52.232;5.196;2022-09-23T00:13:54;11.20;;;6.18;;
48268;SDS011;34088;52.232;5.196;2022-09-23T00:16:23;8.65;;;6.25;;
48268;SDS011;34088;52.232;5.196;2022-09-23T00:18:52;8.38;;;6.25;;
48268;SDS011;34088;52.232;5.196;2022-09-23T00:21:19;11.45;;;7.32;;
48268;SDS011;34088;52.232;5.196;2022-09-23T00:23:46;12.27;;;7.28;;
48268;SDS011;34088;52.232;5.196;2022-09-23T00:26:13;12.50;;;7.32;;
48268;SDS011;34088;52.232;5.196;2022-09-23T00:28:41;8.80;;;6.95;;
48268;SDS011;34088;52.232;5.196;2022-09-23T00:31:11;10.88;;;6.57;;
48268;SDS011;34088;52.232;5.196;2022-09-23T00:33:39;9.48;;;6.85;;
48268;SDS011;34088;52.232;5.196;2022-09-23T00:36:06;9.77;;;6.68;;
48268;SDS011;34088;52.232;5.196;2022-09-23T00:38:35;13.68;;;7.47;;
48268;SDS011;34088;52.232;5.196;2022-09-23T00:41:01;10.57;;;7.38;;
48268;SDS011;34088;52.232;5.196;2022-09-23T00:43:47;11.70;;;7.55;;
48268;SDS011;34088;52.232;5.196;2022-09-23T00:48:56;12.98;;;6.93;;
48268;SDS011;34088;52.232;5.196;2022-09-23T00:51:33;10.82;;;7.57;;
48268;SDS011;34088;52.232;5.196;2022-09-23T00:54:04;11.82;;;7.78;;
48268;SDS011;34088;52.232;5.196;2022-09-23T00:56:30;13.15;;;7.47;;
48268;SDS011;34088;52.232;5.196;2022-09-23T00:58:57;10.52;;;7.78;;
48268;SDS011;34088;52.232;5.196;2022-09-23T01:01:25;11.75;;;7.38;;
48268;SDS011;34088;52.232;5.196;2022-09-23T01:03:51;11.98;;;6.85;;
48268;SDS011;34088;52.232;5.196;2022-09-23T01:06:18;14.23;;;9.13;;
48268;SDS011;34088;52.232;5.196;2022-09-23T01:08:45;10.85;;;8.18;;
48268;SDS011;34088;52.232;5.196;2022-09-23T01:14:42;11.20;;;7.18;;
48268;SDS011;34088;52.232;5.196;2022-09-23T01:17:15;13.30;;;7.20;;
48268;SDS011;34088;52.232;5.196;2022-09-23T01:20:02;10.60;;;7.18;;
48268;SDS011;34088;52.232;5.196;2022-09-23T01:28:22;11.57;;;7.40;;
48268;SDS011;34088;52.232;5.196;2022-09-23T01:30:56;12.90;;;8.05;;
48268;SDS011;34088;52.232;5.196;2022-09-23T01:33:34;11.95;;;7.70;;
48268;SDS011;34088;52.232;5.196;2022-09-23T01:36:18;14.57;;;8.13;;
48268;SDS011;34088;52.232;5.196;2022-09-23T01:38:51;11.80;;;8.07;;
48268;SDS011;34088;52.232;5.196;2022-09-23T01:41:47;12.52;;;8.35;;
48268;SDS011;34088;52.232;5.196;2022-09-23T01:44:36;10.63;;;8.40;;
48268;SDS011;34088;52.232;5.196;2022-09-23T01:47:09;13.57;;;9.18;;
48268;SDS011;34088;52.232;5.196;2022-09-23T01:49:41;10.43;;;7.70;;
48268;SDS011;34088;52.232;5.196;2022-09-23T01:52:34;10.82;;;8.23;;
48268;SDS011;34088;52.232;5.196;2022-09-23T01:58:00;11.27;;;7.80;;
48268;SDS011;34088;52.232;5.196;2022-09-23T02:00:35;12.15;;;8.05;;
48268;SDS011;34088;52.232;5.196;2022-09-23T02:03:08;11.13;;;7.75;;
48268;SDS011;34088;52.232;5.196;2022-09-23T02:05:43;10.02;;;7.57;;
48268;SDS011;34088;52.232;5.196;2022-09-23T02:08:54;12.05;;;8.75;;
48268;SDS011;34088;52.232;5.196;2022-09-23T02:11:16;11.73;;;7.60;;
48268;SDS011;34088;52.232;5.196;2022-09-23T02:16:30;9.65;;;7.25;;
48268;SDS011;34088;52.232;5.196;2022-09-23T02:21:37;11.70;;;7.78;;
48268;SDS011;34088;52.232;5.196;2022-09-23T02:24:11;11.95;;;8.35;;
48268;SDS011;34088;52.232;5.196;2022-09-23T02:34:16;12.68;;;8.85;;
48268;SDS011;34088;52.232;5.196;2022-09-23T02:36:52;14.27;;;8.77;;
48268;SDS011;34088;52.232;5.196;2022-09-23T02:39:25;10.82;;;8.18;;
48268;SDS011;34088;52.232;5.196;2022-09-23T02:42:01;11.68;;;8.40;;
48268;SDS011;34088;52.232;5.196;2022-09-23T02:44:29;11.90;;;8.13;;
48268;SDS011;34088;52.232;5.196;2022-09-23T02:46:56;10.45;;;7.70;;
48268;SDS011;34088;52.232;5.196;2022-09-23T02:49:24;12.95;;;8.38;;
48268;SDS011;34088;52.232;5.196;2022-09-23T02:51:53;14.02;;;8.30;;
48268;SDS011;34088;52.232;5.196;2022-09-23T02:54:21;14.13;;;9.20;;
48268;SDS011;34088;52.232;5.196;2022-09-23T02:56:51;15.98;;;9.85;;
48268;SDS011;34088;52.232;5.196;2022-09-23T02:59:18;13.93;;;9.50;;
48268;SDS011;34088;52.232;5.196;2022-09-23T03:04:24;11.98;;;8.10;;
48268;SDS011;34088;52.232;5.196;2022-09-23T03:07:18;13.35;;;8.85;;
48268;SDS011;34088;52.232;5.196;2022-09-23T03:09:49;13.45;;;7.78;;
48268;SDS011;34088;52.232;5.196;2022-09-23T03:12:25;12.10;;;8.25;;
48268;SDS011;34088;52.232;5.196;2022-09-23T03:17:46;11.93;;;8.65;;
48268;SDS011;34088;52.232;5.196;2022-09-23T03:20:30;13.18;;;8.68;;
48268;SDS011;34088;52.232;5.196;2022-09-23T03:23:01;14.88;;;9.45;;
48268;SDS011;34088;52.232;5.196;2022-09-23T03:25:30;12.70;;;9.30;;
48268;SDS011;34088;52.232;5.196;2022-09-23T03:27:59;12.77;;;9.02;;
48268;SDS011;34088;52.232;5.196;2022-09-23T03:30:27;13.60;;;10.15;;
48268;SDS011;34088;52.232;5.196;2022-09-23T03:32:53;18.00;;;9.90;;
48268;SDS011;34088;52.232;5.196;2022-09-23T03:35:22;15.18;;;11.50;;
48268;SDS011;34088;52.232;5.196;2022-09-23T03:37:51;14.35;;;11.07;;
48268;SDS011;34088;52.232;5.196;2022-09-23T03:40:36;13.63;;;10.02;;
48268;SDS011;34088;52.232;5.196;2022-09-23T03:43:05;16.25;;;11.55;;
48268;SDS011;34088;52.232;5.196;2022-09-23T03:45:32;12.95;;;10.23;;
48268;SDS011;34088;52.232;5.196;2022-09-23T03:47:59;17.42;;;11.75;;
48268;SDS011;34088;52.232;5.196;2022-09-23T03:50:25;18.10;;;12.10;;
48268;SDS011;34088;52.232;5.196;2022-09-23T03:52:51;16.65;;;11.57;;
48268;SDS011;34088;52.232;5.196;2022-09-23T03:55:18;17.08;;;11.68;;
48268;SDS011;34088;52.232;5.196;2022-09-23T03:57:45;15.98;;;11.15;;
48268;SDS011;34088;52.232;5.196;2022-09-23T04:00:11;17.55;;;12.32;;
48268;SDS011;34088;52.232;5.196;2022-09-23T04:02:38;18.15;;;12.75;;
48268;SDS011;34088;52.232;5.196;2022-09-23T04:05:05;15.73;;;12.35;;
48268;SDS011;34088;52.232;5.196;2022-09-23T04:07:31;17.73;;;12.27;;
48268;SDS011;34088;52.232;5.196;2022-09-23T04:09:58;16.60;;;12.90;;
48268;SDS011;34088;52.232;5.196;2022-09-23T04:12:24;18.67;;;12.88;;
48268;SDS011;34088;52.232;5.196;2022-09-23T04:14:50;16.52;;;12.93;;
48268;SDS011;34088;52.232;5.196;2022-09-23T04:17:16;17.80;;;13.65;;
48268;SDS011;34088;52.232;5.196;2022-09-23T04:19:42;19.08;;;13.13;;
48268;SDS011;34088;52.232;5.196;2022-09-23T04:22:09;16.85;;;12.50;;
48268;SDS011;34088;52.232;5.196;2022-09-23T04:24:35;18.10;;;13.30;;
48268;SDS011;34088;52.232;5.196;2022-09-23T04:27:01;18.33;;;13.40;;
48268;SDS011;34088;52.232;5.196;2022-09-23T04:29:27;18.52;;;14.60;;
48268;SDS011;34088;52.232;5.196;2022-09-23T04:31:53;21.58;;;14.63;;
48268;SDS011;34088;52.232;5.196;2022-09-23T04:34:20;20.17;;;14.00;;
48268;SDS011;34088;52.232;5.196;2022-09-23T04:36:46;21.17;;;14.25;;
48268;SDS011;34088;52.232;5.196;2022-09-23T04:39:13;18.33;;;13.52;;
48268;SDS011;34088;52.232;5.196;2022-09-23T04:41:40;17.13;;;13.57;;
48268;SDS011;34088;52.232;5.196;2022-09-23T04:44:07;21.25;;;14.85;;
48268;SDS011;34088;52.232;5.196;2022-09-23T04:46:34;18.45;;;14.38;;
48268;SDS011;34088;52.232;5.196;2022-09-23T04:49:00;19.40;;;14.93;;
48268;SDS011;34088;52.232;5.196;2022-09-23T04:51:27;19.05;;;14.35;;
48268;SDS011;34088;52.232;5.196;2022-09-23T04:53:54;18.05;;;13.95;;
48268;SDS011;34088;52.232;5.196;2022-09-23T04:56:21;18.50;;;14.68;;
48268;SDS011;34088;52.232;5.196;2022-09-23T04:58:49;20.65;;;14.55;;
48268;SDS011;34088;52.232;5.196;2022-09-23T05:01:16;18.63;;;14.85;;
48268;SDS011;34088;52.232;5.196;2022-09-23T05:03:51;21.15;;;15.02;;
48268;SDS011;34088;52.232;5.196;2022-09-23T05:06:18;21.48;;;16.02;;
48268;SDS011;34088;52.232;5.196;2022-09-23T05:08:52;20.58;;;15.75;;
48268;SDS011;34088;52.232;5.196;2022-09-23T05:11:19;22.17;;;16.73;;
48268;SDS011;34088;52.232;5.196;2022-09-23T05:13:48;17.88;;;15.65;;
48268;SDS011;34088;52.232;5.196;2022-09-23T05:16:16;20.95;;;15.18;;
48268;SDS011;34088;52.232;5.196;2022-09-23T05:18:43;21.58;;;16.25;;
48268;SDS011;34088;52.232;5.196;2022-09-23T05:21:11;22.02;;;15.68;;
48268;SDS011;34088;52.232;5.196;2022-09-23T05:23:39;20.95;;;16.13;;
48268;SDS011;34088;52.232;5.196;2022-09-23T05:26:06;21.30;;;15.55;;
48268;SDS011;34088;52.232;5.196;2022-09-23T05:28:33;19.73;;;15.38;;
48268;SDS011;34088;52.232;5.196;2022-09-23T05:31:02;23.33;;;16.45;;
48268;SDS011;34088;52.232;5.196;2022-09-23T05:33:42;23.25;;;16.27;;
48268;SDS011;34088;52.232;5.196;2022-09-23T05:36:10;21.70;;;16.30;;
48268;SDS011;34088;52.232;5.196;2022-09-23T05:38:37;21.25;;;16.45;;
48268;SDS011;34088;52.232;5.196;2022-09-23T05:41:04;21.70;;;16.30;;
48268;SDS011;34088;52.232;5.196;2022-09-23T05:43:32;23.95;;;16.73;;
48268;SDS011;34088;52.232;5.196;2022-09-23T05:46:12;21.50;;;15.77;;
48268;SDS011;34088;52.232;5.196;2022-09-23T05:48:40;20.13;;;16.13;;
48268;SDS011;34088;52.232;5.196;2022-09-23T05:51:07;19.42;;;15.90;;
48268;SDS011;34088;52.232;5.196;2022-09-23T05:53:37;20.92;;;16.38;;
48268;SDS011;34088;52.232;5.196;2022-09-23T05:56:03;21.42;;;15.93;;
48268;SDS011;34088;52.232;5.196;2022-09-23T05:58:30;19.88;;;15.65;;
48268;SDS011;34088;52.232;5.196;2022-09-23T06:00:56;22.85;;;17.05;;
48268;SDS011;34088;52.232;5.196;2022-09-23T06:03:23;22.98;;;16.48;;
48268;SDS011;34088;52.232;5.196;2022-09-23T06:05:53;23.02;;;16.73;;
48268;SDS011;34088;52.232;5.196;2022-09-23T06:08:20;22.90;;;16.30;;
48268;SDS011;34088;52.232;5.196;2022-09-23T06:10:46;21.10;;;16.00;;
48268;SDS011;34088;52.232;5.196;2022-09-23T06:13:13;20.88;;;15.73;;
48268;SDS011;34088;52.232;5.196;2022-09-23T06:15:42;20.08;;;15.88;;
48268;SDS011;34088;52.232;5.196;2022-09-23T06:18:08;19.15;;;16.17;;
48268;SDS011;34088;52.232;5.196;2022-09-23T06:20:35;22.70;;;15.95;;
48268;SDS011;34088;52.232;5.196;2022-09-23T06:23:04;22.63;;;15.90;;
48268;SDS011;34088;52.232;5.196;2022-09-23T06:25:32;20.38;;;15.82;;
48268;SDS011;34088;52.232;5.196;2022-09-23T06:27:59;22.40;;;15.55;;
48268;SDS011;34088;52.232;5.196;2022-09-23T06:30:25;19.20;;;16.33;;
48268;SDS011;34088;52.232;5.196;2022-09-23T06:32:53;16.92;;;14.48;;
48268;SDS011;34088;52.232;5.196;2022-09-23T06:35:21;18.23;;;14.73;;
48268;SDS011;34088;52.232;5.196;2022-09-23T06:37:51;19.40;;;15.52;;
48268;SDS011;34088;52.232;5.196;2022-09-23T06:40:18;18.08;;;14.93;;
48268;SDS011;34088;52.232;5.196;2022-09-23T06:42:44;18.42;;;13.85;;
48268;SDS011;34088;52.232;5.196;2022-09-23T06:45:11;20.30;;;15.18;;
48268;SDS011;34088;52.232;5.196;2022-09-23T06:47:39;20.40;;;14.73;;
48268;SDS011;34088;52.232;5.196;2022-09-23T07:02:25;18.95;;;14.98;;
48268;SDS011;34088;52.232;5.196;2022-09-23T07:04:52;25.92;;;15.35;;
48268;SDS011;34088;52.232;5.196;2022-09-23T07:07:21;19.80;;;14.27;;
48268;SDS011;34088;52.232;5.196;2022-09-23T07:09:47;20.05;;;14.73;;
48268;SDS011;34088;52.232;5.196;2022-09-23T07:12:13;20.92;;;15.00;;
48268;SDS011;34088;52.232;5.196;2022-09-23T07:14:39;19.15;;;14.88;;
48268;SDS011;34088;52.232;5.196;2022-09-23T07:17:06;18.33;;;14.43;;
48268;SDS011;34088;52.232;5.196;2022-09-23T07:19:32;20.92;;;14.77;;
48268;SDS011;34088;52.232;5.196;2022-09-23T07:21:59;19.58;;;14.60;;
48268;SDS011;34088;52.232;5.196;2022-09-23T07:24:25;21.38;;;14.85;;
48268;SDS011;34088;52.232;5.196;2022-09-23T07:26:51;20.65;;;14.65;;
48268;SDS011;34088;52.232;5.196;2022-09-23T07:29:19;19.25;;;14.30;;
48268;SDS011;34088;52.232;5.196;2022-09-23T07:31:45;18.05;;;13.60;;
48268;SDS011;34088;52.232;5.196;2022-09-23T07:34:11;20.75;;;13.82;;
48268;SDS011;34088;52.232;5.196;2022-09-23T07:36:37;20.80;;;14.48;;
48268;SDS011;34088;52.232;5.196;2022-09-23T07:39:04;21.33;;;14.63;;
48268;SDS011;34088;52.232;5.196;2022-09-23T07:41:32;18.00;;;13.75;;
48268;SDS011;34088;52.232;5.196;2022-09-23T07:43:59;18.08;;;14.15;;
48268;SDS011;34088;52.232;5.196;2022-09-23T07:46:27;20.17;;;14.00;;
48268;SDS011;34088;52.232;5.196;2022-09-23T07:48:54;18.35;;;13.23;;
48268;SDS011;34088;52.232;5.196;2022-09-23T07:51:22;19.27;;;13.90;;
48268;SDS011;34088;52.232;5.196;2022-09-23T07:53:52;19.08;;;13.93;;
48268;SDS011;34088;52.232;5.196;2022-09-23T07:56:19;17.77;;;13.60;;
48268;SDS011;34088;52.232;5.196;2022-09-23T07:58:48;16.55;;;13.75;;
48268;SDS011;34088;52.232;5.196;2022-09-23T08:01:24;18.83;;;13.10;;
48268;SDS011;34088;52.232;5.196;2022-09-23T08:03:59;19.05;;;12.85;;
48268;SDS011;34088;52.232;5.196;2022-09-23T08:06:28;23.10;;;12.90;;
48268;SDS011;34088;52.232;5.196;2022-09-23T08:08:57;19.75;;;12.73;;
48268;SDS011;34088;52.232;5.196;2022-09-23T08:11:24;19.20;;;13.50;;
48268;SDS011;34088;52.232;5.196;2022-09-23T08:13:50;18.33;;;12.85;;
48268;SDS011;34088;52.232;5.196;2022-09-23T08:16:18;16.92;;;12.75;;
48268;SDS011;34088;52.232;5.196;2022-09-23T08:18:44;18.55;;;12.43;;
48268;SDS011;34088;52.232;5.196;2022-09-23T08:21:11;19.15;;;12.88;;
48268;SDS011;34088;52.232;5.196;2022-09-23T08:23:37;15.77;;;12.13;;
48268;SDS011;34088;52.232;5.196;2022-09-23T08:26:04;15.55;;;12.45;;
48268;SDS011;34088;52.232;5.196;2022-09-23T08:28:32;15.80;;;12.23;;
48268;SDS011;34088;52.232;5.196;2022-09-23T08:30:59;18.23;;;12.07;;
48268;SDS011;34088;52.232;5.196;2022-09-23T08:33:25;19.40;;;11.68;;
48268;SDS011;34088;52.232;5.196;2022-09-23T08:35:51;15.18;;;12.30;;
48268;SDS011;34088;52.232;5.196;2022-09-23T08:38:22;19.10;;;12.15;;
48268;SDS011;34088;52.232;5.196;2022-09-23T08:40:48;16.15;;;12.00;;
48268;SDS011;34088;52.232;5.196;2022-09-23T08:45:47;16.60;;;11.95;;
48268;SDS011;34088;52.232;5.196;2022-09-23T08:48:15;17.13;;;11.85;;
48268;SDS011;34088;52.232;5.196;2022-09-23T08:50:49;18.90;;;11.70;;
48268;SDS011;34088;52.232;5.196;2022-09-23T08:53:24;14.90;;;11.27;;
48268;SDS011;34088;52.232;5.196;2022-09-23T08:55:53;16.20;;;11.60;;
48268;SDS011;34088;52.232;5.196;2022-09-23T09:01:05;16.30;;;11.02;;
48268;SDS011;34088;52.232;5.196;2022-09-23T09:03:38;19.35;;;11.13;;
48268;SDS011;34088;52.232;5.196;2022-09-23T09:06:17;17.80;;;11.20;;
48268;SDS011;34088;52.232;5.196;2022-09-23T09:08:59;15.98;;;11.88;;
48268;SDS011;34088;52.232;5.196;2022-09-23T09:11:34;14.50;;;10.77;;
48268;SDS011;34088;52.232;5.196;2022-09-23T09:16:55;13.65;;;10.85;;
48268;SDS011;34088;52.232;5.196;2022-09-23T09:20:16;15.18;;;11.35;;
48268;SDS011;34088;52.232;5.196;2022-09-23T09:22:32;18.85;;;11.32;;
48268;SDS011;34088;52.232;5.196;2022-09-23T09:28:16;14.50;;;10.77;;
48268;SDS011;34088;52.232;5.196;2022-09-23T09:39:25;15.95;;;9.40;;
48268;SDS011;34088;52.232;5.196;2022-09-23T09:41:52;14.85;;;9.73;;
48268;SDS011;34088;52.232;5.196;2022-09-23T09:45:05;13.07;;;8.82;;
48268;SDS011;34088;52.232;5.196;2022-09-23T09:47:24;13.80;;;9.48;;
48268;SDS011;34088;52.232;5.196;2022-09-23T10:00:54;12.38;;;10.00;;
48268;SDS011;34088;52.232;5.196;2022-09-23T10:03:24;14.00;;;10.50;;
48268;SDS011;34088;52.232;5.196;2022-09-23T10:06:16;13.45;;;10.00;;
48268;SDS011;34088;52.232;5.196;2022-09-23T10:08:50;14.18;;;10.07;;
48268;SDS011;34088;52.232;5.196;2022-09-23T10:11:36;11.20;;;9.48;;
48268;SDS011;34088;52.232;5.196;2022-09-23T10:16:41;15.60;;;10.27;;
48268;SDS011;34088;52.232;5.196;2022-09-23T10:19:23;12.55;;;9.40;;
48268;SDS011;34088;52.232;5.196;2022-09-23T10:21:54;13.85;;;10.05;;
48268;SDS011;34088;52.232;5.196;2022-09-23T10:24:31;12.32;;;9.32;;
48268;SDS011;34088;52.232;5.196;2022-09-23T10:27:01;16.25;;;9.93;;
48268;SDS011;34088;52.232;5.196;2022-09-23T10:29:39;13.18;;;9.40;;
48268;SDS011;34088;52.232;5.196;2022-09-23T10:32:15;14.82;;;9.60;;
48268;SDS011;34088;52.232;5.196;2022-09-23T10:35:01;16.27;;;9.27;;
48268;SDS011;34088;52.232;5.196;2022-09-23T10:37:31;16.17;;;9.80;;
48268;SDS011;34088;52.232;5.196;2022-09-23T10:40:15;12.90;;;8.88;;
48268;SDS011;34088;52.232;5.196;2022-09-23T10:46:07;13.32;;;8.80;;
48268;SDS011;34088;52.232;5.196;2022-09-23T10:54:23;13.07;;;7.80;;
48268;SDS011;34088;52.232;5.196;2022-09-23T10:57:03;11.43;;;8.30;;
48268;SDS011;34088;52.232;5.196;2022-09-23T11:05:32;14.25;;;6.55;;
48268;SDS011;34088;52.232;5.196;2022-09-23T11:11:23;10.20;;;6.50;;
48268;SDS011;34088;52.232;5.196;2022-09-23T11:24:59;11.65;;;7.22;;
48268;SDS011;34088;52.232;5.196;2022-09-23T11:31:19;11.15;;;7.30;;
48268;SDS011;34088;52.232;5.196;2022-09-23T11:38:48;12.25;;;8.15;;
48268;SDS011;34088;52.232;5.196;2022-09-23T11:41:17;14.95;;;8.80;;
48268;SDS011;34088;52.232;5.196;2022-09-23T11:43:51;12.20;;;8.02;;
48268;SDS011;34088;52.232;5.196;2022-09-23T11:51:39;15.48;;;7.95;;
48268;SDS011;34088;52.232;5.196;2022-09-23T11:54:22;13.40;;;8.38;;
48268;SDS011;34088;52.232;5.196;2022-09-23T11:57:05;16.13;;;8.50;;
48268;SDS011;34088;52.232;5.196;2022-09-23T11:59:45;13.18;;;8.07;;
48268;SDS011;34088;52.232;5.196;2022-09-23T12:02:29;11.15;;;7.47;;
48268;SDS011;34088;52.232;5.196;2022-09-23T12:05:15;12.43;;;7.65;;
48268;SDS011;34088;52.232;5.196;2022-09-23T12:10:20;12.40;;;7.68;;
48268;SDS011;34088;52.232;5.196;2022-09-23T12:20:44;12.98;;;6.95;;
48268;SDS011;34088;52.232;5.196;2022-09-23T12:26:27;13.48;;;7.57;;
48268;SDS011;34088;52.232;5.196;2022-09-23T12:28:55;13.63;;;8.07;;
48268;SDS011;34088;52.232;5.196;2022-09-23T12:31:25;13.93;;;7.55;;
48268;SDS011;34088;52.232;5.196;2022-09-23T12:33:54;13.02;;;7.60;;
48268;SDS011;34088;52.232;5.196;2022-09-23T12:36:28;9.93;;;6.85;;
48268;SDS011;34088;52.232;5.196;2022-09-23T12:39:02;12.20;;;6.88;;
48268;SDS011;34088;52.232;5.196;2022-09-23T12:41:35;10.25;;;6.68;;
48268;SDS011;34088;52.232;5.196;2022-09-23T12:46:42;10.75;;;6.75;;
48268;SDS011;34088;52.232;5.196;2022-09-23T12:49:21;12.10;;;7.43;;
48268;SDS011;34088;52.232;5.196;2022-09-23T12:54:37;8.18;;;6.30;;
48268;SDS011;34088;52.232;5.196;2022-09-23T12:57:04;10.52;;;6.75;;
48268;SDS011;34088;52.232;5.196;2022-09-23T13:02:25;11.27;;;6.25;;
48268;SDS011;34088;52.232;5.196;2022-09-23T13:05:07;14.45;;;6.65;;
48268;SDS011;34088;52.232;5.196;2022-09-23T13:08:21;11.00;;;6.57;;
48268;SDS011;34088;52.232;5.196;2022-09-23T13:10:51;9.93;;;6.13;;
48268;SDS011;34088;52.232;5.196;2022-09-23T13:13:24;18.88;;;6.65;;
48268;SDS011;34088;52.232;5.196;2022-09-23T13:15:51;8.90;;;6.43;;
48268;SDS011;34088;52.232;5.196;2022-09-23T13:20:45;13.32;;;7.22;;
48268;SDS011;34088;52.232;5.196;2022-09-23T13:25:47;11.60;;;6.80;;
48268;SDS011;34088;52.232;5.196;2022-09-23T13:28:22;10.43;;;6.80;;
48268;SDS011;34088;52.232;5.196;2022-09-23T13:30:52;10.27;;;6.65;;
48268;SDS011;34088;52.232;5.196;2022-09-23T13:33:24;9.75;;;6.82;;
48268;SDS011;34088;52.232;5.196;2022-09-23T13:35:55;12.40;;;7.60;;
48268;SDS011;34088;52.232;5.196;2022-09-23T13:38:26;10.65;;;7.80;;
48268;SDS011;34088;52.232;5.196;2022-09-23T13:40:57;10.23;;;8.23;;
48268;SDS011;34088;52.232;5.196;2022-09-23T13:43:30;12.73;;;8.88;;
48268;SDS011;34088;52.232;5.196;2022-09-23T13:46:00;12.98;;;8.90;;
48268;SDS011;34088;52.232;5.196;2022-09-23T13:48:29;11.88;;;8.63;;
48268;SDS011;34088;52.232;5.196;2022-09-23T13:50:55;13.23;;;9.20;;
48268;SDS011;34088;52.232;5.196;2022-09-23T13:53:27;14.23;;;9.55;;
48268;SDS011;34088;52.232;5.196;2022-09-23T13:56:03;13.27;;;8.73;;
48268;SDS011;34088;52.232;5.196;2022-09-23T13:58:31;14.55;;;9.93;;
48268;SDS011;34088;52.232;5.196;2022-09-23T14:00:59;12.63;;;9.75;;
48268;SDS011;34088;52.232;5.196;2022-09-23T14:03:33;14.10;;;9.82;;
48268;SDS011;34088;52.232;5.196;2022-09-23T14:06:02;13.75;;;10.45;;
48268;SDS011;34088;52.232;5.196;2022-09-23T14:08:31;15.95;;;10.48;;
48268;SDS011;34088;52.232;5.196;2022-09-23T14:10:57;12.60;;;10.57;;
48268;SDS011;34088;52.232;5.196;2022-09-23T14:15:51;17.85;;;12.23;;
48268;SDS011;34088;52.232;5.196;2022-09-23T14:18:42;19.88;;;12.18;;
48268;SDS011;34088;52.232;5.196;2022-09-23T14:26:52;17.60;;;12.13;;
48268;SDS011;34088;52.232;5.196;2022-09-23T14:29:42;17.05;;;11.52;;
48268;SDS011;34088;52.232;5.196;2022-09-23T14:32:15;16.10;;;10.95;;
48268;SDS011;34088;52.232;5.196;2022-09-23T14:40:02;14.32;;;9.55;;
48268;SDS011;34088;52.232;5.196;2022-09-23T14:42:30;10.55;;;8.70;;
48268;SDS011;34088;52.232;5.196;2022-09-23T14:45:03;11.30;;;8.55;;
48268;SDS011;34088;52.232;5.196;2022-09-23T14:47:30;10.48;;;7.90;;
48268;SDS011;34088;52.232;5.196;2022-09-23T14:49:57;15.15;;;8.05;;
48268;SDS011;34088;52.232;5.196;2022-09-23T14:52:48;11.95;;;7.70;;
48268;SDS011;34088;52.232;5.196;2022-09-23T14:55:15;12.73;;;7.43;;
48268;SDS011;34088;52.232;5.196;2022-09-23T14:57:42;9.75;;;7.07;;
48268;SDS011;34088;52.232;5.196;2022-09-23T15:00:14;12.70;;;7.40;;
48268;SDS011;34088;52.232;5.196;2022-09-23T15:02:42;11.27;;;6.60;;
48268;SDS011;34088;52.232;5.196;2022-09-23T15:07:49;10.90;;;6.97;;
48268;SDS011;34088;52.232;5.196;2022-09-23T15:10:17;10.50;;;7.43;;
48268;SDS011;34088;52.232;5.196;2022-09-23T15:12:49;13.20;;;7.05;;
48268;SDS011;34088;52.232;5.196;2022-09-23T15:15:16;11.07;;;6.60;;
48268;SDS011;34088;52.232;5.196;2022-09-23T15:17:43;10.90;;;6.97;;
48268;SDS011;34088;52.232;5.196;2022-09-23T15:20:16;10.32;;;7.30;;
48268;SDS011;34088;52.232;5.196;2022-09-23T15:22:51;10.27;;;7.20;;
48268;SDS011;34088;52.232;5.196;2022-09-23T15:25:19;11.15;;;7.18;;
48268;SDS011;34088;52.232;5.196;2022-09-23T15:30:22;11.10;;;7.00;;
48268;SDS011;34088;52.232;5.196;2022-09-23T15:32:48;11.40;;;7.22;;
48268;SDS011;34088;52.232;5.196;2022-09-23T15:35:16;11.80;;;7.50;;
48268;SDS011;34088;52.232;5.196;2022-09-23T15:37:44;11.50;;;7.25;;
48268;SDS011;34088;52.232;5.196;2022-09-23T15:40:27;9.63;;;7.20;;
48268;SDS011;34088;52.232;5.196;2022-09-23T15:42:58;12.98;;;7.35;;
48268;SDS011;34088;52.232;5.196;2022-09-23T15:45:27;13.50;;;7.60;;
48268;SDS011;34088;52.232;5.196;2022-09-23T15:48:09;13.43;;;10.13;;
48268;SDS011;34088;52.232;5.196;2022-09-23T15:50:50;13.43;;;8.77;;
48268;SDS011;34088;52.232;5.196;2022-09-23T15:53:20;15.80;;;9.05;;
48268;SDS011;34088;52.232;5.196;2022-09-23T15:55:48;12.48;;;8.82;;
48268;SDS011;34088;52.232;5.196;2022-09-23T15:58:20;13.60;;;9.65;;
48268;SDS011;34088;52.232;5.196;2022-09-23T16:00:47;13.88;;;9.18;;
48268;SDS011;34088;52.232;5.196;2022-09-23T16:03:17;14.38;;;10.18;;
48268;SDS011;34088;52.232;5.196;2022-09-23T16:05:50;22.35;;;19.17;;
48268;SDS011;34088;52.232;5.196;2022-09-23T16:08:16;17.13;;;13.75;;
48268;SDS011;34088;52.232;5.196;2022-09-23T16:10:47;14.85;;;10.68;;
48268;SDS011;34088;52.232;5.196;2022-09-23T16:13:14;13.38;;;10.50;;
48268;SDS011;34088;52.232;5.196;2022-09-23T16:15:40;15.40;;;11.15;;
48268;SDS011;34088;52.232;5.196;2022-09-23T16:18:07;13.15;;;10.85;;
48268;SDS011;34088;52.232;5.196;2022-09-23T16:20:34;17.30;;;11.80;;
48268;SDS011;34088;52.232;5.196;2022-09-23T16:23:03;15.73;;;12.52;;
48268;SDS011;34088;52.232;5.196;2022-09-23T16:25:31;15.82;;;11.30;;
48268;SDS011;34088;52.232;5.196;2022-09-23T16:28:00;18.83;;;13.35;;
48268;SDS011;34088;52.232;5.196;2022-09-23T16:30:28;17.67;;;12.45;;
48268;SDS011;34088;52.232;5.196;2022-09-23T16:32:55;16.77;;;12.80;;
48268;SDS011;34088;52.232;5.196;2022-09-23T16:35:23;16.45;;;11.85;;
48268;SDS011;34088;52.232;5.196;2022-09-23T16:37:50;18.88;;;12.77;;
48268;SDS011;34088;52.232;5.196;2022-09-23T16:40:17;16.38;;;13.45;;
48268;SDS011;34088;52.232;5.196;2022-09-23T16:42:46;16.67;;;13.23;;
48268;SDS011;34088;52.232;5.196;2022-09-23T16:45:14;19.25;;;14.15;;
48268;SDS011;34088;52.232;5.196;2022-09-23T16:47:42;18.70;;;14.10;;
48268;SDS011;34088;52.232;5.196;2022-09-23T16:50:09;20.00;;;15.40;;
48268;SDS011;34088;52.232;5.196;2022-09-23T16:52:36;19.35;;;16.00;;
48268;SDS011;34088;52.232;5.196;2022-09-23T16:55:03;22.08;;;18.05;;
48268;SDS011;34088;52.232;5.196;2022-09-23T16:57:29;22.05;;;18.48;;
48268;SDS011;34088;52.232;5.196;2022-09-23T16:59:55;25.90;;;18.85;;
48268;SDS011;34088;52.232;5.196;2022-09-23T17:02:40;23.13;;;19.58;;
48268;SDS011;34088;52.232;5.196;2022-09-23T17:05:25;26.30;;;20.25;;
48268;SDS011;34088;52.232;5.196;2022-09-23T17:07:51;28.10;;;21.52;;
48268;SDS011;34088;52.232;5.196;2022-09-23T17:10:18;28.85;;;21.23;;
48268;SDS011;34088;52.232;5.196;2022-09-23T17:12:45;32.33;;;23.02;;
48268;SDS011;34088;52.232;5.196;2022-09-23T17:15:11;29.35;;;23.95;;
48268;SDS011;34088;52.232;5.196;2022-09-23T17:17:37;34.22;;;24.30;;
48268;SDS011;34088;52.232;5.196;2022-09-23T17:20:04;32.28;;;24.20;;
48268;SDS011;34088;52.232;5.196;2022-09-23T17:22:31;33.30;;;22.73;;
48268;SDS011;34088;52.232;5.196;2022-09-23T17:24:58;27.48;;;21.38;;
48268;SDS011;34088;52.232;5.196;2022-09-23T17:27:26;31.27;;;24.83;;
48268;SDS011;34088;52.232;5.196;2022-09-23T17:29:53;34.05;;;25.75;;
48268;SDS011;34088;52.232;5.196;2022-09-23T17:32:19;27.58;;;22.08;;
48268;SDS011;34088;52.232;5.196;2022-09-23T17:34:45;26.40;;;21.17;;
48268;SDS011;34088;52.232;5.196;2022-09-23T17:37:11;32.60;;;23.30;;